createdAt,value
2019-03-23T00:00:22.748Z,82.37
2019-03-23T00:03:10.418Z,82.54
2019-03-23T00:05:43.910Z,82.57
2019-03-23T00:08:18.010Z,82.74
2019-03-23T00:10:51.784Z,82.62
2019-03-23T00:13:25.478Z,82.59
2019-03-23T00:16:10.084Z,82.71
2019-03-23T00:18:44.320Z,82.91
2019-03-23T00:21:27.731Z,83.02
2019-03-23T00:24:03.110Z,83.07
2019-03-23T00:26:40.692Z,83.30
2019-03-23T00:29:14.388Z,83.07
2019-03-23T00:31:50.416Z,82.79
2019-03-23T00:34:25.307Z,82.74
2019-03-23T00:37:15.377Z,82.72
2019-03-23T00:40:00.330Z,82.64
2019-03-23T00:42:33.633Z,82.59
2019-03-23T00:45:11.240Z,82.39
2019-03-23T00:47:49.593Z,82.42
2019-03-23T00:50:25.471Z,82.65
2019-03-23T00:53:04.325Z,82.56
2019-03-23T00:55:49.418Z,82.60
2019-03-23T00:58:28.475Z,82.66
2019-03-23T01:01:02.237Z,82.61
2019-03-23T01:03:35.935Z,82.98
2019-03-23T01:06:18.742Z,83.38
2019-03-23T01:09:09.636Z,83.28
2019-03-23T01:12:00.658Z,83.33
2019-03-23T01:14:46.450Z,82.99
2019-03-23T01:17:21.583Z,83.13
2019-03-23T01:19:56.374Z,83.67
2019-03-23T01:22:31.038Z,84.42
2019-03-23T01:25:05.616Z,84.81
2019-03-23T01:27:39.682Z,85.39
2019-03-23T01:30:22.142Z,85.12
2019-03-23T01:32:56.242Z,84.78
2019-03-23T01:35:41.812Z,83.98
2019-03-23T01:38:15.509Z,83.57
2019-03-23T01:40:49.596Z,83.51
2019-03-23T01:43:23.643Z,85.61
2019-03-23T01:46:14.819Z,86.99
2019-03-23T01:48:48.828Z,87.78
2019-03-23T01:51:22.584Z,88.30
2019-03-23T01:53:59.936Z,88.88
2019-03-23T01:56:48.636Z,89.29
2019-03-23T01:59:22.286Z,89.40
2019-03-23T02:01:56.064Z,89.43
2019-03-23T02:04:48.030Z,89.53
2019-03-23T02:07:22.535Z,89.62
2019-03-23T02:09:56.586Z,89.71
2019-03-23T02:12:30.555Z,89.82
2019-03-23T02:15:06.424Z,89.92
2019-03-23T02:17:55.566Z,90.00
2019-03-23T02:20:38.115Z,89.89
2019-03-23T02:23:23.708Z,89.87
2019-03-23T02:26:07.325Z,89.95
2019-03-23T02:28:41.212Z,90.03
2019-03-23T02:31:15.268Z,90.16
2019-03-23T02:34:06.645Z,90.25
2019-03-23T02:36:46.870Z,90.38
2019-03-23T02:39:21.939Z,90.52
2019-03-23T02:41:56.645Z,90.58
2019-03-23T02:44:48.033Z,90.70
2019-03-23T02:47:22.012Z,90.63
2019-03-23T02:49:55.725Z,90.30
2019-03-23T02:52:30.253Z,89.78
2019-03-23T02:55:18.960Z,89.44
2019-03-23T02:57:52.784Z,89.24
2019-03-23T03:00:43.891Z,89.12
2019-03-23T03:03:18.014Z,88.84
2019-03-23T03:06:02.839Z,88.59
2019-03-23T03:08:47.831Z,88.62
2019-03-23T03:11:23.298Z,88.64
2019-03-23T03:13:57.409Z,88.66
2019-03-23T03:16:46.951Z,88.69
2019-03-23T03:19:20.718Z,88.69
2019-03-23T03:21:55.680Z,88.56
2019-03-23T03:24:29.967Z,88.41
2019-03-23T03:27:22.858Z,88.22
2019-03-23T03:29:57.378Z,88.45
2019-03-23T03:32:55.114Z,88.60
2019-03-23T03:35:29.510Z,88.74
2019-03-23T03:38:03.922Z,88.95
2019-03-23T03:40:38.112Z,89.00
2019-03-23T03:43:21.560Z,89.11
2019-03-23T03:45:56.267Z,89.05
2019-03-23T03:48:41.748Z,88.79
2019-03-23T03:51:15.865Z,88.61
2019-03-23T03:53:59.677Z,88.46
2019-03-23T03:56:33.444Z,88.21
2019-03-23T03:59:07.799Z,87.84
2019-03-23T04:01:51.536Z,87.62
2019-03-23T04:04:25.576Z,87.26
2019-03-23T04:07:10.489Z,87.11
2019-03-23T04:09:54.568Z,87.25
2019-03-23T04:12:28.816Z,87.33
2019-03-23T04:15:14.287Z,86.86
2019-03-23T04:17:57.960Z,86.75
2019-03-23T04:20:32.217Z,86.45
2019-03-23T04:23:15.753Z,86.28
2019-03-23T04:25:49.731Z,86.21
2019-03-23T04:28:23.828Z,86.29
2019-03-23T04:31:06.356Z,86.53
2019-03-23T04:33:40.824Z,86.67
2019-03-23T04:36:16.012Z,86.72
2019-03-23T04:38:50.393Z,86.74
2019-03-23T04:41:35.860Z,86.40
2019-03-23T04:44:21.864Z,86.46
2019-03-23T04:46:56.047Z,86.40
2019-03-23T04:49:30.895Z,85.98
2019-03-23T04:52:05.658Z,85.78
2019-03-23T04:54:39.353Z,85.66
2019-03-23T04:57:13.463Z,85.57
2019-03-23T04:59:47.477Z,85.81
2019-03-23T05:02:21.492Z,85.86
2019-03-23T05:05:12.513Z,85.70
2019-03-23T05:07:56.522Z,85.58
2019-03-23T05:10:30.946Z,85.28
2019-03-23T05:13:15.671Z,85.29
2019-03-23T05:16:01.169Z,85.53
2019-03-23T05:18:51.593Z,86.04
2019-03-23T05:21:25.971Z,86.06
2019-03-23T05:24:08.696Z,85.96
2019-03-23T05:26:43.433Z,86.15
2019-03-23T05:29:17.814Z,86.09
2019-03-23T05:32:00.669Z,86.13
2019-03-23T05:34:33.657Z,86.04
2019-03-23T05:37:07.769Z,85.76
2019-03-23T05:40:01.010Z,85.65
2019-03-23T05:42:44.266Z,85.52
2019-03-23T05:45:18.085Z,85.62
2019-03-23T05:47:53.003Z,85.34
2019-03-23T05:50:34.070Z,85.40
2019-03-23T05:53:22.614Z,85.30
2019-03-23T05:55:58.658Z,84.98
2019-03-23T05:58:33.139Z,84.82
2019-03-23T06:01:16.232Z,84.70
2019-03-23T06:04:04.693Z,84.75
2019-03-23T06:06:39.091Z,84.58
2019-03-23T06:09:43.145Z,84.41
2019-03-23T06:12:26.126Z,84.42
2019-03-23T06:15:08.691Z,84.73
2019-03-23T06:17:51.818Z,84.84
2019-03-23T06:20:38.936Z,85.18
2019-03-23T06:23:13.304Z,85.34
2019-03-23T06:25:47.181Z,85.52
2019-03-23T06:28:31.871Z,85.77
2019-03-23T06:31:05.880Z,85.73
2019-03-23T06:33:39.932Z,85.67
2019-03-23T06:36:22.492Z,85.72
2019-03-23T06:39:15.639Z,85.48
2019-03-23T06:41:49.780Z,85.37
2019-03-23T06:44:33.182Z,85.07
2019-03-23T06:47:07.609Z,84.89
2019-03-23T06:50:03.368Z,84.54
2019-03-23T06:52:37.118Z,84.37
2019-03-23T06:55:17.314Z,84.59
2019-03-23T06:57:51.765Z,84.70
2019-03-23T07:00:34.415Z,84.77
2019-03-23T07:03:27.958Z,84.50
2019-03-23T07:06:04.963Z,84.44
2019-03-23T07:08:40.095Z,84.42
2019-03-23T07:11:14.414Z,84.20
2019-03-23T07:13:52.894Z,84.22
2019-03-23T07:16:43.232Z,84.35
2019-03-23T07:19:22.847Z,84.55
2019-03-23T07:22:08.347Z,84.67
2019-03-23T07:24:53.360Z,84.52
2019-03-23T07:27:31.729Z,84.25
2019-03-23T07:30:07.346Z,84.06
2019-03-23T07:32:52.987Z,83.79
2019-03-23T07:35:29.144Z,83.53
2019-03-23T07:38:16.593Z,83.64
2019-03-23T07:40:59.132Z,83.64
2019-03-23T07:43:50.192Z,83.57
2019-03-23T07:46:34.883Z,83.08
2019-03-23T07:49:08.631Z,82.59
2019-03-23T07:51:52.723Z,82.56
2019-03-23T07:54:42.463Z,82.83
2019-03-23T07:57:17.424Z,83.13
2019-03-23T08:00:17.686Z,83.08
2019-03-23T08:03:17.255Z,83.00
2019-03-23T08:06:00.188Z,82.94
2019-03-23T08:08:56.534Z,83.02
2019-03-23T08:11:41.460Z,82.53
2019-03-23T08:14:45.230Z,81.93
2019-03-23T08:17:24.204Z,81.65
2019-03-23T08:20:01.007Z,81.68
2019-03-23T08:22:38.500Z,81.41
2019-03-23T08:25:38.115Z,81.82
2019-03-23T08:28:23.225Z,81.94
2019-03-23T08:30:59.579Z,81.23
2019-03-23T08:33:35.599Z,80.97
2019-03-23T08:36:19.841Z,80.82
2019-03-23T08:39:24.424Z,80.29
2019-03-23T08:45:22.050Z,80.68
2019-03-23T08:47:56.639Z,80.15
2019-03-23T08:51:05.479Z,80.19
2019-03-23T09:00:45.609Z,80.63
2019-03-23T09:03:31.680Z,80.40
2019-03-23T09:06:06.001Z,79.98
2019-03-23T09:08:49.607Z,79.51
2019-03-23T09:11:24.668Z,79.09
2019-03-23T09:14:00.865Z,79.45
2019-03-23T09:16:48.405Z,79.36
2019-03-23T09:19:23.211Z,79.08
2019-03-23T09:22:01.807Z,79.04
2019-03-23T09:24:39.042Z,78.87
2019-03-23T09:27:15.581Z,79.27
2019-03-23T09:29:49.599Z,79.10
2019-03-23T09:32:25.792Z,79.21
2019-03-23T09:34:59.908Z,79.39
2019-03-23T09:37:38.279Z,78.80
2019-03-23T09:40:11.775Z,78.45
2019-03-23T09:42:47.932Z,78.56
2019-03-23T09:45:32.557Z,78.41
2019-03-23T09:48:10.208Z,78.17
2019-03-23T09:50:46.641Z,77.51
2019-03-23T09:53:20.782Z,77.63
2019-03-23T09:55:57.169Z,78.26
2019-03-23T09:58:32.273Z,78.44
2019-03-23T10:01:06.303Z,78.50
2019-03-23T10:04:02.289Z,77.81
2019-03-23T10:06:36.176Z,76.82
2019-03-23T10:09:09.850Z,76.71
2019-03-23T10:12:13.633Z,76.34
2019-03-23T10:14:46.715Z,76.23
2019-03-23T10:17:21.475Z,76.44
2019-03-23T10:19:55.317Z,76.47
2019-03-23T10:22:38.325Z,76.12
2019-03-23T10:25:12.447Z,76.54
2019-03-23T10:27:48.870Z,76.93
2019-03-23T10:30:26.262Z,76.87
2019-03-23T10:33:08.273Z,76.69
2019-03-23T10:35:51.266Z,76.20
2019-03-23T10:38:33.917Z,76.30
2019-03-23T10:41:23.224Z,76.20
2019-03-23T10:44:01.306Z,76.16
2019-03-23T10:46:35.055Z,74.94
2019-03-23T10:49:11.741Z,74.90
2019-03-23T10:51:49.202Z,75.25
2019-03-23T10:54:27.713Z,75.81
2019-03-23T10:57:03.784Z,75.96
2019-03-23T10:59:37.844Z,75.95
2019-03-23T11:02:13.092Z,75.80
2019-03-23T11:04:53.847Z,75.32
2019-03-23T11:07:27.625Z,75.33
2019-03-23T11:10:07.871Z,75.37
2019-03-23T11:12:51.853Z,75.30
2019-03-23T11:15:35.748Z,74.94
2019-03-23T11:18:09.647Z,74.78
2019-03-23T11:20:46.578Z,74.83
2019-03-23T11:23:56.483Z,74.64
2019-03-23T11:26:40.529Z,74.88
2019-03-23T11:29:22.165Z,75.58
2019-03-23T11:31:56.609Z,76.00
2019-03-23T11:34:41.826Z,76.57
2019-03-23T11:37:15.925Z,76.63
2019-03-23T11:39:50.768Z,76.62
2019-03-23T11:42:24.500Z,76.72
2019-03-23T11:44:58.289Z,76.55
2019-03-23T11:47:33.917Z,76.09
2019-03-23T11:50:16.637Z,76.39
2019-03-23T11:52:51.817Z,76.14
2019-03-23T11:55:25.888Z,75.82
2019-03-23T11:58:17.415Z,75.93
2019-03-23T12:00:51.505Z,76.21
2019-03-23T12:03:24.472Z,76.42
2019-03-23T12:05:59.335Z,76.59
2019-03-23T12:08:34.835Z,76.55
2019-03-23T12:11:08.880Z,76.63
2019-03-23T12:13:42.681Z,76.52
2019-03-23T12:16:28.828Z,76.05
2019-03-23T12:19:17.923Z,75.63
2019-03-23T12:22:01.337Z,75.27
2019-03-23T12:24:47.123Z,74.67
2019-03-23T12:27:32.133Z,74.91
2019-03-23T12:30:13.116Z,75.34
2019-03-23T12:33:01.938Z,75.73
2019-03-23T12:35:53.232Z,74.90
2019-03-23T12:38:38.913Z,74.78
2019-03-23T12:41:23.242Z,75.09
2019-03-23T12:44:06.314Z,75.20
2019-03-23T12:46:48.808Z,75.57
2019-03-23T12:49:32.147Z,76.08
2019-03-23T12:52:14.884Z,76.07
2019-03-23T12:54:48.904Z,76.20
2019-03-23T12:57:22.891Z,76.37
2019-03-23T12:59:58.708Z,76.74
2019-03-23T13:02:47.830Z,76.66
2019-03-23T13:05:38.049Z,77.07
2019-03-23T13:08:20.501Z,77.03
2019-03-23T13:10:54.173Z,77.45
2019-03-23T13:13:29.598Z,77.65
2019-03-23T13:16:05.270Z,78.04
2019-03-23T13:18:40.751Z,78.21
2019-03-23T13:21:14.761Z,78.60
2019-03-23T13:23:48.785Z,78.82
2019-03-23T13:26:35.174Z,79.49
2019-03-23T13:29:09.709Z,80.05
2019-03-23T13:31:55.492Z,80.99
2019-03-23T13:34:29.317Z,81.30
2019-03-23T13:37:02.784Z,81.70
2019-03-23T13:39:36.736Z,82.04
2019-03-23T13:42:22.289Z,82.25
2019-03-23T13:44:57.347Z,82.66
2019-03-23T13:47:31.378Z,83.11
2019-03-23T13:50:25.126Z,83.11
2019-03-23T13:52:59.744Z,83.27
2019-03-23T13:55:34.956Z,83.57
2019-03-23T13:58:15.437Z,83.45
2019-03-23T14:00:49.550Z,83.37
2019-03-23T14:03:26.417Z,83.23
2019-03-23T14:06:01.552Z,83.12
2019-03-23T14:08:48.326Z,82.91
2019-03-23T14:11:22.498Z,82.68
2019-03-23T14:14:11.254Z,82.39
2019-03-23T14:16:45.627Z,82.68
2019-03-23T14:19:56.854Z,82.64
2019-03-23T14:22:31.304Z,82.64
2019-03-23T14:25:06.693Z,82.28
2019-03-23T14:27:40.971Z,82.05
2019-03-23T14:30:39.462Z,81.68
2019-03-23T14:33:14.987Z,81.30
2019-03-23T14:36:02.139Z,80.26
2019-03-23T14:38:49.143Z,79.75
2019-03-23T14:41:23.454Z,79.47
2019-03-23T14:43:59.246Z,79.23
2019-03-23T14:46:45.547Z,79.22
2019-03-23T14:59:58.551Z,78.31
2019-03-23T15:02:33.481Z,78.31
2019-03-23T15:05:12.308Z,78.30
2019-03-23T15:07:57.386Z,78.44
2019-03-23T15:10:31.457Z,78.29
2019-03-23T15:13:05.266Z,78.11
2019-03-23T15:15:39.914Z,78.22
2019-03-23T15:18:13.722Z,77.47
2019-03-23T15:20:47.407Z,76.22
2019-03-23T15:23:21.483Z,75.05
2019-03-23T15:26:07.538Z,74.32
2019-03-23T15:28:42.808Z,74.17
2019-03-23T15:31:25.633Z,73.28
2019-03-23T15:34:08.542Z,72.54
2019-03-23T15:36:52.075Z,71.53
2019-03-23T15:39:26.937Z,71.95
2019-03-23T15:42:01.500Z,71.36
2019-03-23T15:44:35.773Z,70.89
2019-03-23T15:47:09.763Z,70.82
2019-03-23T15:49:58.953Z,71.26
2019-03-23T15:52:42.676Z,71.39
2019-03-23T15:55:17.048Z,71.28
2019-03-23T15:57:59.427Z,70.83
2019-03-23T16:00:34.247Z,70.60
2019-03-23T16:03:09.206Z,70.41
2019-03-23T16:05:43.223Z,70.48
2019-03-23T16:08:18.174Z,70.31
2019-03-23T16:10:54.101Z,70.14
2019-03-23T16:13:37.519Z,69.90
2019-03-23T16:16:12.157Z,68.84
2019-03-23T16:18:49.111Z,68.26
2019-03-23T16:21:34.626Z,68.19
2019-03-23T16:24:08.707Z,68.27
2019-03-23T16:26:42.440Z,68.77
2019-03-23T16:29:16.585Z,68.91
2019-03-23T16:32:05.862Z,68.72
2019-03-23T16:34:51.547Z,69.18
2019-03-23T16:37:30.215Z,69.46
2019-03-23T16:40:05.434Z,69.37
2019-03-23T16:42:48.303Z,69.05
2019-03-23T16:45:36.357Z,69.20
2019-03-23T16:48:19.027Z,68.41
2019-03-23T16:51:09.794Z,67.73
2019-03-23T16:53:46.943Z,67.51
2019-03-23T16:56:21.647Z,67.61
2019-03-23T16:58:55.724Z,67.91
2019-03-23T17:01:31.799Z,67.40
2019-03-23T17:04:14.962Z,67.93
2019-03-23T17:06:48.795Z,67.91
2019-03-23T17:09:23.010Z,68.20
2019-03-23T17:12:05.871Z,68.39
2019-03-23T17:14:55.326Z,68.75
2019-03-23T17:17:29.011Z,68.70
2019-03-23T17:20:03.058Z,69.05
2019-03-23T17:22:36.884Z,68.86
2019-03-23T17:25:10.998Z,69.27
2019-03-23T17:27:53.848Z,69.69
2019-03-23T17:30:36.896Z,69.40
2019-03-23T17:33:21.171Z,69.47
2019-03-23T17:36:03.703Z,69.21
2019-03-23T17:38:37.931Z,69.34
2019-03-23T17:41:11.651Z,69.10
2019-03-23T17:43:45.744Z,69.58
2019-03-23T17:46:19.449Z,69.32
2019-03-23T17:48:52.980Z,69.59
2019-03-23T17:51:26.669Z,69.09
2019-03-23T17:54:00.529Z,69.42
2019-03-23T17:56:43.404Z,69.56
2019-03-23T17:59:32.997Z,69.50
2019-03-23T18:02:07.999Z,69.61
2019-03-23T18:04:42.018Z,69.75
2019-03-23T18:07:25.883Z,70.05
2019-03-23T18:10:09.118Z,70.38
2019-03-23T18:12:43.740Z,70.36
2019-03-23T18:15:26.360Z,70.48
2019-03-23T18:18:01.183Z,70.83
2019-03-23T18:20:34.847Z,71.11
2019-03-23T18:23:08.606Z,71.10
2019-03-23T18:25:42.264Z,71.42
2019-03-23T18:28:16.371Z,71.63
2019-03-23T18:30:58.939Z,71.78
2019-03-23T18:33:42.145Z,72.20
2019-03-23T18:36:25.391Z,72.67
2019-03-23T18:39:00.155Z,73.15
2019-03-23T18:41:47.172Z,73.21
2019-03-23T18:44:30.012Z,73.75
2019-03-23T18:47:12.633Z,74.34
2019-03-23T18:49:49.281Z,74.58
2019-03-23T18:52:22.760Z,74.70
2019-03-23T18:54:57.256Z,74.84
2019-03-23T18:57:31.505Z,74.85
2019-03-23T19:00:06.310Z,75.16
2019-03-23T19:02:40.326Z,75.07
2019-03-23T19:05:14.212Z,75.19
2019-03-23T19:08:03.832Z,75.36
2019-03-23T19:10:37.780Z,75.52
2019-03-23T19:13:11.945Z,75.52
2019-03-23T19:15:58.306Z,75.61
2019-03-23T19:18:37.683Z,75.44
2019-03-23T19:21:20.353Z,75.72
2019-03-23T19:23:54.146Z,76.12
2019-03-23T19:26:36.811Z,76.33
2019-03-23T19:29:11.120Z,76.59
2019-03-23T19:31:45.650Z,76.94
2019-03-23T19:34:28.457Z,77.36
2019-03-23T19:37:02.527Z,77.67
2019-03-23T19:39:47.779Z,78.26
2019-03-23T19:42:30.660Z,78.29
2019-03-23T19:45:13.145Z,78.24
2019-03-23T19:47:46.826Z,78.23
2019-03-23T19:50:29.561Z,78.08
2019-03-23T19:53:14.022Z,78.15
2019-03-23T19:55:47.974Z,78.17
2019-03-23T19:58:39.606Z,78.29
2019-03-23T20:01:13.636Z,78.64
2019-03-23T20:03:59.155Z,78.93
2019-03-23T20:06:48.203Z,79.01
2019-03-23T20:09:22.811Z,79.00
2019-03-23T20:12:06.760Z,78.94
2019-03-23T20:14:42.937Z,79.17
2019-03-23T20:17:25.724Z,79.34
2019-03-23T20:20:01.501Z,79.34
2019-03-23T20:22:35.351Z,79.50
2019-03-23T20:25:09.762Z,79.50
2019-03-23T20:27:53.015Z,79.24
2019-03-23T20:30:27.480Z,79.08
2019-03-23T20:33:19.034Z,79.35
2019-03-23T20:36:00.615Z,79.36
2019-03-23T20:38:35.008Z,79.43
2019-03-23T20:41:20.713Z,79.69
2019-03-23T20:44:11.249Z,79.87
2019-03-23T20:46:56.772Z,80.10
2019-03-23T20:49:41.248Z,80.23
2019-03-23T20:52:30.439Z,80.22
2019-03-23T20:55:04.603Z,80.24
2019-03-23T20:57:50.343Z,80.21
2019-03-23T21:00:28.427Z,79.75
2019-03-23T21:03:03.240Z,79.53
2019-03-23T21:05:37.753Z,79.78
2019-03-23T21:08:21.364Z,79.64
2019-03-23T21:10:55.918Z,79.79
2019-03-23T21:13:42.127Z,79.86
2019-03-23T21:16:16.831Z,80.18
2019-03-23T21:18:50.849Z,80.34
2019-03-23T21:21:24.751Z,80.24
2019-03-23T21:23:59.121Z,80.51
2019-03-23T21:26:32.818Z,80.31
2019-03-23T21:29:06.587Z,80.42
2019-03-23T21:31:45.090Z,80.79
2019-03-23T21:34:21.722Z,80.68
2019-03-23T21:36:57.206Z,80.58
2019-03-23T21:39:33.195Z,80.77
2019-03-23T21:42:18.210Z,81.00
2019-03-23T21:44:53.012Z,80.87
2019-03-23T21:47:36.182Z,80.94
2019-03-23T21:50:19.648Z,81.11
2019-03-23T21:53:10.548Z,81.30
2019-03-23T21:55:48.945Z,81.34
2019-03-23T21:58:23.824Z,81.15
2019-03-23T22:01:07.378Z,81.02
2019-03-23T22:03:43.381Z,80.76
2019-03-23T22:06:17.298Z,80.32
2019-03-23T22:08:52.028Z,80.03
2019-03-23T22:11:42.704Z,80.00
2019-03-23T22:14:17.106Z,80.33
2019-03-23T22:17:00.590Z,80.44
2019-03-23T22:19:44.282Z,80.84
2019-03-23T22:22:18.312Z,80.88
2019-03-23T22:24:52.656Z,80.98
2019-03-23T22:27:37.871Z,80.96
2019-03-23T22:30:20.834Z,80.76
2019-03-23T22:33:03.646Z,80.64
2019-03-23T22:35:46.623Z,80.62
2019-03-23T22:38:30.334Z,80.53
2019-03-23T22:41:04.429Z,80.41
2019-03-23T22:43:47.146Z,80.47
2019-03-23T22:46:34.455Z,80.48
2019-03-23T22:49:09.761Z,80.63
2019-03-23T22:51:54.724Z,81.06
2019-03-23T22:54:41.061Z,81.00
2019-03-23T22:57:28.008Z,80.99
2019-03-23T23:00:03.041Z,81.19
2019-03-23T23:02:43.538Z,81.45
2019-03-23T23:05:18.163Z,81.54
2019-03-23T23:07:51.864Z,81.75
2019-03-23T23:10:25.883Z,81.66
2019-03-23T23:13:00.632Z,81.61
2019-03-23T23:15:36.299Z,81.66
2019-03-23T23:18:09.932Z,81.81
2019-03-23T23:20:43.863Z,81.59
2019-03-23T23:23:18.221Z,81.69
2019-03-23T23:28:50.683Z,81.52
2019-03-23T23:31:37.289Z,81.49
2019-03-23T23:34:12.371Z,81.67
2019-03-23T23:37:02.736Z,81.57
2019-03-23T23:39:50.247Z,81.38
2019-03-23T23:42:44.241Z,81.51
2019-03-23T23:45:18.588Z,81.36
2019-03-23T23:47:54.002Z,81.67
2019-03-23T23:50:44.559Z,81.95
2019-03-23T23:53:19.980Z,81.93
2019-03-23T23:55:54.686Z,82.04
2019-03-23T23:58:33.680Z,81.88
